aviador You're here:

KMKY Decoded Metar

in
Report Time2017-12-17 07:56:00
UTC Time2017-12-17 08:03:07
Flight Rules vfr VFR
Wind030° at 06 kt
W.Decomp.*RWY 35: 4.6 kt HW 3.9 kt RCW
W.Rank030° ranks 6
Current wind is below 030° avg. (6.2)
Visibility9999 m
Phenomena:N/A
Clouds:N/A
Expected CloudBase > 400 ft AGL from Temp-Dew spread
CeilingNone
Temp16°C
Dew Point15°C (94% RH)
AAT15.5°C
QNH1023 hPa
Raw Report
METAR KMKY 170756Z AUTO 03006KT 10SM CLR 16/15 A3021 RMK AO2 SLP230
T01610150=

Extra information for KMKY:More info

Social comments